sensor_id;sensor_type;location;lat;lon;timestamp;pressure;altitude;pressure_sealevel;temperature;humidity
62124;BME280;48110;47.532;19.078;2023-08-07T00:00:26;99519.97;;;15.55;100.00
62124;BME280;48110;47.532;19.078;2023-08-07T00:03:28;99512.91;;;15.61;100.00
62124;BME280;48110;47.532;19.078;2023-08-07T00:06:31;99517.91;;;15.57;100.00
62124;BME280;48110;47.532;19.078;2023-08-07T00:09:34;99512.56;;;15.57;100.00
62124;BME280;48110;47.532;19.078;2023-08-07T00:12:37;99515.81;;;15.59;100.00
62124;BME280;48110;47.532;19.078;2023-08-07T00:15:40;99521.81;;;15.55;100.00
62124;BME280;48110;47.532;19.078;2023-08-07T00:18:42;99520.22;;;15.47;100.00
62124;BME280;48110;47.532;19.078;2023-08-07T00:21:45;99514.25;;;15.45;100.00
62124;BME280;48110;47.532;19.078;2023-08-07T00:24:48;99516.38;;;15.43;100.00
62124;BME280;48110;47.532;19.078;2023-08-07T00:27:51;99514.44;;;15.50;100.00
62124;BME280;48110;47.532;19.078;2023-08-07T00:30:54;99513.03;;;15.48;100.00
62124;BME280;48110;47.532;19.078;2023-08-07T00:33:57;99517.94;;;15.51;100.00
62124;BME280;48110;47.532;19.078;2023-08-07T00:37:00;99520.56;;;15.57;100.00
62124;BME280;48110;47.532;19.078;2023-08-07T00:40:04;99523.41;;;15.62;100.00
62124;BME280;48110;47.532;19.078;2023-08-07T00:43:07;99519.69;;;15.63;100.00
62124;BME280;48110;47.532;19.078;2023-08-07T00:46:11;99522.78;;;15.60;100.00
62124;BME280;48110;47.532;19.078;2023-08-07T00:49:14;99520.47;;;15.64;100.00
62124;BME280;48110;47.532;19.078;2023-08-07T00:52:17;99523.28;;;15.51;100.00
62124;BME280;48110;47.532;19.078;2023-08-07T00:55:22;99517.34;;;15.49;100.00
62124;BME280;48110;47.532;19.078;2023-08-07T00:58:25;99515.69;;;15.48;100.00
62124;BME280;48110;47.532;19.078;2023-08-07T01:01:28;99519.03;;;15.43;100.00
62124;BME280;48110;47.532;19.078;2023-08-07T01:04:34;99511.69;;;15.39;100.00
62124;BME280;48110;47.532;19.078;2023-08-07T01:07:37;99516.62;;;15.35;100.00
62124;BME280;48110;47.532;19.078;2023-08-07T01:11:00;99515.78;;;15.35;100.00
62124;BME280;48110;47.532;19.078;2023-08-07T01:17:51;99516.56;;;15.17;100.00
62124;BME280;48110;47.532;19.078;2023-08-07T01:20:55;99528.41;;;15.28;100.00
62124;BME280;48110;47.532;19.078;2023-08-07T01:23:58;99520.84;;;15.25;100.00
62124;BME280;48110;47.532;19.078;2023-08-07T01:27:20;99515.75;;;15.16;100.00
62124;BME280;48110;47.532;19.078;2023-08-07T01:30:36;99529.78;;;15.12;100.00
62124;BME280;48110;47.532;19.078;2023-08-07T01:34:00;99524.47;;;15.30;100.00
62124;BME280;48110;47.532;19.078;2023-08-07T01:37:06;99533.44;;;15.42;100.00
62124;BME280;48110;47.532;19.078;2023-08-07T01:40:11;99535.19;;;15.55;100.00
62124;BME280;48110;47.532;19.078;2023-08-07T01:43:16;99541.34;;;15.55;100.00
62124;BME280;48110;47.532;19.078;2023-08-07T01:46:19;99537.81;;;15.61;100.00
62124;BME280;48110;47.532;19.078;2023-08-07T01:49:22;99542.84;;;15.70;100.00
62124;BME280;48110;47.532;19.078;2023-08-07T01:52:25;99542.28;;;15.68;100.00
62124;BME280;48110;47.532;19.078;2023-08-07T01:55:30;99537.59;;;15.63;100.00
62124;BME280;48110;47.532;19.078;2023-08-07T01:58:32;99532.25;;;15.63;100.00
62124;BME280;48110;47.532;19.078;2023-08-07T02:01:35;99539.44;;;15.62;100.00
62124;BME280;48110;47.532;19.078;2023-08-07T02:04:38;99540.94;;;15.58;100.00
62124;BME280;48110;47.532;19.078;2023-08-07T02:07:42;99556.31;;;15.63;100.00
62124;BME280;48110;47.532;19.078;2023-08-07T02:10:45;99543.50;;;15.65;100.00
62124;BME280;48110;47.532;19.078;2023-08-07T02:13:48;99541.28;;;15.62;100.00
62124;BME280;48110;47.532;19.078;2023-08-07T02:16:51;99547.69;;;15.61;100.00
62124;BME280;48110;47.532;19.078;2023-08-07T02:19:54;99547.00;;;15.65;100.00
62124;BME280;48110;47.532;19.078;2023-08-07T02:22:57;99548.50;;;15.61;100.00
62124;BME280;48110;47.532;19.078;2023-08-07T02:26:01;99546.69;;;15.55;100.00
62124;BME280;48110;47.532;19.078;2023-08-07T02:29:04;99554.53;;;15.50;100.00
62124;BME280;48110;47.532;19.078;2023-08-07T02:32:09;99545.69;;;15.50;100.00
62124;BME280;48110;47.532;19.078;2023-08-07T02:35:12;99549.09;;;15.39;100.00
62124;BME280;48110;47.532;19.078;2023-08-07T02:38:15;99554.03;;;15.35;100.00
62124;BME280;48110;47.532;19.078;2023-08-07T02:41:17;99548.75;;;15.29;100.00
62124;BME280;48110;47.532;19.078;2023-08-07T02:44:25;99547.12;;;15.28;100.00
62124;BME280;48110;47.532;19.078;2023-08-07T02:47:27;99555.34;;;15.26;100.00
62124;BME280;48110;47.532;19.078;2023-08-07T02:50:30;99544.31;;;15.16;100.00
62124;BME280;48110;47.532;19.078;2023-08-07T02:53:35;99549.63;;;15.22;100.00
62124;BME280;48110;47.532;19.078;2023-08-07T02:56:37;99563.81;;;15.23;100.00
62124;BME280;48110;47.532;19.078;2023-08-07T02:59:40;99558.03;;;15.26;100.00
62124;BME280;48110;47.532;19.078;2023-08-07T03:02:43;99552.84;;;15.31;100.00
62124;BME280;48110;47.532;19.078;2023-08-07T03:05:49;99555.97;;;15.28;100.00
62124;BME280;48110;47.532;19.078;2023-08-07T03:08:53;99564.63;;;15.23;100.00
62124;BME280;48110;47.532;19.078;2023-08-07T03:11:55;99562.38;;;15.20;100.00
62124;BME280;48110;47.532;19.078;2023-08-07T03:14:58;99553.16;;;15.16;100.00
62124;BME280;48110;47.532;19.078;2023-08-07T03:18:01;99558.56;;;15.10;100.00
62124;BME280;48110;47.532;19.078;2023-08-07T03:21:04;99557.75;;;15.09;100.00
62124;BME280;48110;47.532;19.078;2023-08-07T03:24:06;99550.16;;;15.06;100.00
62124;BME280;48110;47.532;19.078;2023-08-07T03:27:12;99553.00;;;15.11;100.00
62124;BME280;48110;47.532;19.078;2023-08-07T03:30:15;99561.28;;;15.03;100.00
62124;BME280;48110;47.532;19.078;2023-08-07T03:33:19;99560.91;;;15.00;100.00
62124;BME280;48110;47.532;19.078;2023-08-07T03:36:22;99560.03;;;15.06;100.00
62124;BME280;48110;47.532;19.078;2023-08-07T03:39:25;99562.69;;;15.06;100.00
62124;BME280;48110;47.532;19.078;2023-08-07T03:42:28;99555.94;;;15.03;100.00
62124;BME280;48110;47.532;19.078;2023-08-07T03:45:31;99570.38;;;14.96;100.00
62124;BME280;48110;47.532;19.078;2023-08-07T03:48:34;99574.91;;;14.95;100.00
62124;BME280;48110;47.532;19.078;2023-08-07T03:51:37;99581.06;;;14.96;100.00
62124;BME280;48110;47.532;19.078;2023-08-07T03:54:42;99580.06;;;14.90;100.00
62124;BME280;48110;47.532;19.078;2023-08-07T03:57:45;99580.06;;;14.90;100.00
62124;BME280;48110;47.532;19.078;2023-08-07T04:00:47;99578.62;;;14.88;100.00
62124;BME280;48110;47.532;19.078;2023-08-07T04:03:51;99578.62;;;14.88;100.00
62124;BME280;48110;47.532;19.078;2023-08-07T04:06:54;99583.97;;;14.88;100.00
62124;BME280;48110;47.532;19.078;2023-08-07T04:09:58;99584.41;;;14.85;100.00
62124;BME280;48110;47.532;19.078;2023-08-07T04:13:00;99580.94;;;14.84;100.00
62124;BME280;48110;47.532;19.078;2023-08-07T04:16:06;99577.44;;;14.84;100.00
62124;BME280;48110;47.532;19.078;2023-08-07T04:19:09;99590.78;;;14.84;100.00
62124;BME280;48110;47.532;19.078;2023-08-07T04:22:12;99590.34;;;14.87;100.00
62124;BME280;48110;47.532;19.078;2023-08-07T04:25:14;99594.47;;;14.83;100.00
62124;BME280;48110;47.532;19.078;2023-08-07T04:28:17;99588.97;;;14.77;100.00
62124;BME280;48110;47.532;19.078;2023-08-07T04:31:20;99602.94;;;14.79;100.00
62124;BME280;48110;47.532;19.078;2023-08-07T04:34:23;99588.72;;;14.86;100.00
62124;BME280;48110;47.532;19.078;2023-08-07T04:37:26;99597.31;;;14.94;100.00
62124;BME280;48110;47.532;19.078;2023-08-07T04:40:29;99601.38;;;14.97;100.00
62124;BME280;48110;47.532;19.078;2023-08-07T04:43:31;99601.62;;;14.95;100.00
62124;BME280;48110;47.532;19.078;2023-08-07T04:46:34;99600.72;;;15.01;100.00
62124;BME280;48110;47.532;19.078;2023-08-07T04:49:37;99600.34;;;14.98;100.00
62124;BME280;48110;47.532;19.078;2023-08-07T04:52:40;99601.97;;;15.05;100.00
62124;BME280;48110;47.532;19.078;2023-08-07T04:55:43;99601.38;;;15.28;100.00
62124;BME280;48110;47.532;19.078;2023-08-07T04:58:46;99593.91;;;15.37;100.00
62124;BME280;48110;47.532;19.078;2023-08-07T05:01:48;99595.47;;;15.51;100.00
62124;BME280;48110;47.532;19.078;2023-08-07T05:04:51;99588.81;;;15.60;100.00
62124;BME280;48110;47.532;19.078;2023-08-07T05:07:54;99601.53;;;15.64;100.00
62124;BME280;48110;47.532;19.078;2023-08-07T05:10:57;99604.16;;;15.71;100.00
62124;BME280;48110;47.532;19.078;2023-08-07T05:14:00;99591.81;;;15.70;100.00
62124;BME280;48110;47.532;19.078;2023-08-07T05:17:03;99594.97;;;15.60;100.00
62124;BME280;48110;47.532;19.078;2023-08-07T05:20:07;99598.63;;;15.66;100.00
62124;BME280;48110;47.532;19.078;2023-08-07T05:23:12;99596.66;;;15.80;100.00
62124;BME280;48110;47.532;19.078;2023-08-07T05:26:16;99599.63;;;15.90;100.00
62124;BME280;48110;47.532;19.078;2023-08-07T05:29:19;99596.81;;;16.03;100.00
62124;BME280;48110;47.532;19.078;2023-08-07T05:32:22;99588.72;;;16.09;100.00
62124;BME280;48110;47.532;19.078;2023-08-07T05:35:25;99603.50;;;16.12;100.00
62124;BME280;48110;47.532;19.078;2023-08-07T05:38:27;99597.06;;;16.20;100.00
62124;BME280;48110;47.532;19.078;2023-08-07T05:41:31;99606.50;;;16.22;100.00
62124;BME280;48110;47.532;19.078;2023-08-07T05:44:33;99609.56;;;16.26;100.00
62124;BME280;48110;47.532;19.078;2023-08-07T05:47:36;99620.31;;;16.37;100.00
62124;BME280;48110;47.532;19.078;2023-08-07T05:50:39;99628.00;;;16.34;100.00
62124;BME280;48110;47.532;19.078;2023-08-07T05:53:42;99633.81;;;16.31;100.00
62124;BME280;48110;47.532;19.078;2023-08-07T05:56:45;99647.34;;;16.36;100.00
62124;BME280;48110;47.532;19.078;2023-08-07T05:59:48;99644.88;;;16.34;100.00
62124;BME280;48110;47.532;19.078;2023-08-07T06:02:50;99650.69;;;16.31;100.00
62124;BME280;48110;47.532;19.078;2023-08-07T06:05:53;99634.38;;;16.33;100.00
62124;BME280;48110;47.532;19.078;2023-08-07T06:08:56;99665.25;;;16.35;100.00
62124;BME280;48110;47.532;19.078;2023-08-07T06:12:02;99670.56;;;16.60;100.00
62124;BME280;48110;47.532;19.078;2023-08-07T06:15:05;99685.34;;;16.63;100.00
62124;BME280;48110;47.532;19.078;2023-08-07T06:18:08;99684.00;;;16.53;100.00
62124;BME280;48110;47.532;19.078;2023-08-07T06:21:11;99681.47;;;16.77;98.77
62124;BME280;48110;47.532;19.078;2023-08-07T06:24:14;99697.03;;;16.86;100.00
62124;BME280;48110;47.532;19.078;2023-08-07T06:27:17;99700.84;;;17.38;96.05
62124;BME280;48110;47.532;19.078;2023-08-07T06:30:19;99702.88;;;17.13;95.27
62124;BME280;48110;47.532;19.078;2023-08-07T06:33:22;99707.66;;;16.93;95.45
62124;BME280;48110;47.532;19.078;2023-08-07T06:36:25;99711.81;;;17.07;96.37
62124;BME280;48110;47.532;19.078;2023-08-07T06:39:28;99709.59;;;16.68;97.01
62124;BME280;48110;47.532;19.078;2023-08-07T06:42:32;99720.81;;;16.94;95.83
62124;BME280;48110;47.532;19.078;2023-08-07T06:45:35;99716.91;;;16.79;95.29
62124;BME280;48110;47.532;19.078;2023-08-07T06:48:37;99721.63;;;16.95;98.60
62124;BME280;48110;47.532;19.078;2023-08-07T06:51:40;99734.81;;;16.97;96.18
62124;BME280;48110;47.532;19.078;2023-08-07T06:54:43;99730.97;;;16.74;100.00
62124;BME280;48110;47.532;19.078;2023-08-07T06:57:46;99733.13;;;16.84;97.48
62124;BME280;48110;47.532;19.078;2023-08-07T07:00:49;99729.47;;;16.78;95.53
62124;BME280;48110;47.532;19.078;2023-08-07T07:03:51;99740.47;;;17.07;94.83
62124;BME280;48110;47.532;19.078;2023-08-07T07:06:55;99733.56;;;16.99;94.39
62124;BME280;48110;47.532;19.078;2023-08-07T07:09:58;99732.94;;;17.15;95.31
62124;BME280;48110;47.532;19.078;2023-08-07T07:13:03;99732.03;;;17.21;91.65
62124;BME280;48110;47.532;19.078;2023-08-07T07:16:06;99730.59;;;17.19;91.22
62124;BME280;48110;47.532;19.078;2023-08-07T07:19:09;99734.94;;;17.20;90.71
62124;BME280;48110;47.532;19.078;2023-08-07T07:22:12;99733.53;;;17.47;87.38
62124;BME280;48110;47.532;19.078;2023-08-07T07:25:14;99734.34;;;17.66;87.27
62124;BME280;48110;47.532;19.078;2023-08-07T07:28:17;99724.28;;;17.61;82.98
62124;BME280;48110;47.532;19.078;2023-08-07T07:31:20;99737.41;;;17.51;84.77
62124;BME280;48110;47.532;19.078;2023-08-07T07:34:23;99735.44;;;17.58;84.44
62124;BME280;48110;47.532;19.078;2023-08-07T07:37:27;99745.59;;;17.86;85.28
62124;BME280;48110;47.532;19.078;2023-08-07T07:40:30;99743.28;;;18.13;81.70
62124;BME280;48110;47.532;19.078;2023-08-07T07:43:33;99750.88;;;18.28;82.31
62124;BME280;48110;47.532;19.078;2023-08-07T07:46:35;99753.28;;;18.06;81.72
62124;BME280;48110;47.532;19.078;2023-08-07T07:49:38;99748.63;;;18.01;82.66
62124;BME280;48110;47.532;19.078;2023-08-07T07:52:41;99763.81;;;17.96;82.13
62124;BME280;48110;47.532;19.078;2023-08-07T07:55:47;99776.88;;;18.04;82.19
62124;BME280;48110;47.532;19.078;2023-08-07T07:58:52;99768.97;;;17.49;84.30
62124;BME280;48110;47.532;19.078;2023-08-07T08:01:55;99773.78;;;17.47;84.39
62124;BME280;48110;47.532;19.078;2023-08-07T08:04:58;99780.94;;;18.06;81.05
62124;BME280;48110;47.532;19.078;2023-08-07T08:08:01;99790.81;;;18.24;81.39
62124;BME280;48110;47.532;19.078;2023-08-07T08:11:04;99787.00;;;17.90;80.44
62124;BME280;48110;47.532;19.078;2023-08-07T08:14:06;99799.47;;;17.85;77.83
62124;BME280;48110;47.532;19.078;2023-08-07T08:17:09;99794.87;;;18.15;78.16
62124;BME280;48110;47.532;19.078;2023-08-07T08:20:12;99798.06;;;18.47;77.39
62124;BME280;48110;47.532;19.078;2023-08-07T08:23:18;99800.41;;;18.55;76.53
62124;BME280;48110;47.532;19.078;2023-08-07T08:26:21;99807.97;;;18.23;77.66
62124;BME280;48110;47.532;19.078;2023-08-07T08:29:24;99811.81;;;18.27;77.09
62124;BME280;48110;47.532;19.078;2023-08-07T08:32:28;99819.69;;;18.87;74.94
62124;BME280;48110;47.532;19.078;2023-08-07T08:35:31;99814.91;;;18.77;76.91
62124;BME280;48110;47.532;19.078;2023-08-07T08:38:34;99822.38;;;18.75;76.44
62124;BME280;48110;47.532;19.078;2023-08-07T08:41:37;99818.16;;;19.02;74.68
62124;BME280;48110;47.532;19.078;2023-08-07T08:44:51;99819.13;;;18.61;74.87
62124;BME280;48110;47.532;19.078;2023-08-07T08:48:01;99825.78;;;18.82;72.37
62124;BME280;48110;47.532;19.078;2023-08-07T08:51:04;99837.16;;;19.12;70.81
62124;BME280;48110;47.532;19.078;2023-08-07T08:54:07;99832.44;;;18.91;70.93
62124;BME280;48110;47.532;19.078;2023-08-07T08:57:11;99841.50;;;19.14;71.00
62124;BME280;48110;47.532;19.078;2023-08-07T09:00:15;99849.94;;;18.94;71.14
62124;BME280;48110;47.532;19.078;2023-08-07T09:03:24;99852.97;;;19.09;72.56
62124;BME280;48110;47.532;19.078;2023-08-07T09:06:27;99851.47;;;18.90;72.82
62124;BME280;48110;47.532;19.078;2023-08-07T09:09:33;99851.81;;;18.82;73.32
62124;BME280;48110;47.532;19.078;2023-08-07T09:12:45;99857.66;;;18.79;74.12
62124;BME280;48110;47.532;19.078;2023-08-07T09:15:52;99855.69;;;18.86;73.97
62124;BME280;48110;47.532;19.078;2023-08-07T09:18:55;99861.38;;;19.12;74.64
62124;BME280;48110;47.532;19.078;2023-08-07T09:21:58;99855.19;;;19.12;72.20
62124;BME280;48110;47.532;19.078;2023-08-07T09:25:01;99862.16;;;20.05;69.58
62124;BME280;48110;47.532;19.078;2023-08-07T09:28:05;99866.81;;;20.09;66.21
62124;BME280;48110;47.532;19.078;2023-08-07T09:31:08;99861.97;;;19.66;68.14
62124;BME280;48110;47.532;19.078;2023-08-07T09:34:19;99858.47;;;19.66;65.58
62124;BME280;48110;47.532;19.078;2023-08-07T09:37:23;99852.94;;;19.72;68.51
62124;BME280;48110;47.532;19.078;2023-08-07T09:40:30;99855.72;;;20.06;65.45
62124;BME280;48110;47.532;19.078;2023-08-07T09:43:35;99854.72;;;21.29;60.00
62124;BME280;48110;47.532;19.078;2023-08-07T09:46:43;99871.84;;;21.17;63.05
62124;BME280;48110;47.532;19.078;2023-08-07T09:49:47;99868.53;;;20.44;61.87
62124;BME280;48110;47.532;19.078;2023-08-07T09:52:50;99873.38;;;20.13;64.16
62124;BME280;48110;47.532;19.078;2023-08-07T09:55:54;99879.87;;;19.72;67.99
62124;BME280;48110;47.532;19.078;2023-08-07T09:58:57;99889.16;;;19.93;67.74
62124;BME280;48110;47.532;19.078;2023-08-07T10:02:02;99895.06;;;19.03;70.29
62124;BME280;48110;47.532;19.078;2023-08-07T10:05:06;99903.81;;;18.76;70.40
62124;BME280;48110;47.532;19.078;2023-08-07T10:08:11;99902.53;;;18.66;71.14
62124;BME280;48110;47.532;19.078;2023-08-07T10:11:15;99905.12;;;19.83;67.48
62124;BME280;48110;47.532;19.078;2023-08-07T10:14:18;99881.59;;;21.62;60.71
62124;BME280;48110;47.532;19.078;2023-08-07T10:17:22;99896.63;;;22.28;57.68
62124;BME280;48110;47.532;19.078;2023-08-07T10:20:27;99907.44;;;23.81;52.33
62124;BME280;48110;47.532;19.078;2023-08-07T10:23:32;99901.13;;;22.44;51.33
62124;BME280;48110;47.532;19.078;2023-08-07T10:26:40;99906.00;;;22.47;55.38
62124;BME280;48110;47.532;19.078;2023-08-07T10:29:46;99905.69;;;21.47;54.66
62124;BME280;48110;47.532;19.078;2023-08-07T10:32:50;99896.19;;;22.36;54.39
62124;BME280;48110;47.532;19.078;2023-08-07T10:35:54;99886.06;;;20.96;59.05
62124;BME280;48110;47.532;19.078;2023-08-07T10:39:06;99910.66;;;20.33;63.55
62124;BME280;48110;47.532;19.078;2023-08-07T10:42:11;99905.91;;;19.55;70.44
62124;BME280;48110;47.532;19.078;2023-08-07T10:45:17;99904.06;;;20.12;67.22
62124;BME280;48110;47.532;19.078;2023-08-07T10:48:20;99897.22;;;19.65;68.84
62124;BME280;48110;47.532;19.078;2023-08-07T10:51:29;99904.06;;;19.21;70.41
62124;BME280;48110;47.532;19.078;2023-08-07T10:54:54;99908.13;;;19.23;69.20
62124;BME280;48110;47.532;19.078;2023-08-07T10:57:56;99926.97;;;19.23;71.25
62124;BME280;48110;47.532;19.078;2023-08-07T11:04:27;99912.44;;;19.99;68.67
62124;BME280;48110;47.532;19.078;2023-08-07T11:07:31;99932.59;;;19.22;73.98
62124;BME280;48110;47.532;19.078;2023-08-07T11:10:34;99931.50;;;18.76;75.65
62124;BME280;48110;47.532;19.078;2023-08-07T11:13:37;99947.78;;;19.04;72.96
62124;BME280;48110;47.532;19.078;2023-08-07T11:16:40;99935.47;;;18.62;76.01
62124;BME280;48110;47.532;19.078;2023-08-07T11:19:43;99929.06;;;19.09;74.82
62124;BME280;48110;47.532;19.078;2023-08-07T11:22:48;99930.56;;;19.64;72.46
62124;BME280;48110;47.532;19.078;2023-08-07T11:25:52;99928.19;;;19.79;71.94
62124;BME280;48110;47.532;19.078;2023-08-07T11:28:55;99932.25;;;21.77;65.86
62124;BME280;48110;47.532;19.078;2023-08-07T11:32:00;99945.34;;;22.06;58.96
62124;BME280;48110;47.532;19.078;2023-08-07T11:35:04;99939.09;;;22.86;58.21
62124;BME280;48110;47.532;19.078;2023-08-07T11:38:08;99943.84;;;21.34;59.23
62124;BME280;48110;47.532;19.078;2023-08-07T11:41:13;99939.41;;;21.11;59.72
62124;BME280;48110;47.532;19.078;2023-08-07T11:44:17;99946.78;;;20.82;61.21
62124;BME280;48110;47.532;19.078;2023-08-07T11:47:19;99935.06;;;20.43;64.62
62124;BME280;48110;47.532;19.078;2023-08-07T11:50:22;99933.16;;;18.77;70.79
62124;BME280;48110;47.532;19.078;2023-08-07T11:53:27;99928.38;;;18.08;79.03
62124;BME280;48110;47.532;19.078;2023-08-07T11:56:30;99937.56;;;19.41;74.59
62124;BME280;48110;47.532;19.078;2023-08-07T11:59:33;99936.94;;;22.30;59.26
62124;BME280;48110;47.532;19.078;2023-08-07T12:02:36;99950.03;;;20.67;67.65
62124;BME280;48110;47.532;19.078;2023-08-07T12:05:40;99957.06;;;21.02;69.59
62124;BME280;48110;47.532;19.078;2023-08-07T12:08:48;99951.12;;;21.55;63.76
62124;BME280;48110;47.532;19.078;2023-08-07T12:11:56;99947.69;;;23.15;56.41
62124;BME280;48110;47.532;19.078;2023-08-07T12:15:01;99946.25;;;23.03;55.24
62124;BME280;48110;47.532;19.078;2023-08-07T12:18:07;99942.97;;;23.90;53.87
62124;BME280;48110;47.532;19.078;2023-08-07T12:21:10;99938.59;;;23.31;55.83
62124;BME280;48110;47.532;19.078;2023-08-07T12:24:13;99959.66;;;24.34;51.15
62124;BME280;48110;47.532;19.078;2023-08-07T12:27:15;99949.94;;;24.58;49.97
62124;BME280;48110;47.532;19.078;2023-08-07T12:30:19;99951.56;;;25.09;49.10
62124;BME280;48110;47.532;19.078;2023-08-07T12:33:22;99951.25;;;26.11;47.16
62124;BME280;48110;47.532;19.078;2023-08-07T12:36:25;99958.13;;;24.88;46.89
62124;BME280;48110;47.532;19.078;2023-08-07T12:39:28;99972.56;;;25.93;47.60
62124;BME280;48110;47.532;19.078;2023-08-07T12:42:33;99960.28;;;25.06;47.64
62124;BME280;48110;47.532;19.078;2023-08-07T12:45:36;99942.59;;;22.87;51.16
62124;BME280;48110;47.532;19.078;2023-08-07T12:48:42;99961.31;;;23.77;51.47
62124;BME280;48110;47.532;19.078;2023-08-07T12:51:44;99972.72;;;25.23;47.67
62124;BME280;48110;47.532;19.078;2023-08-07T12:54:47;99977.16;;;22.53;54.09
62124;BME280;48110;47.532;19.078;2023-08-07T12:57:52;99967.28;;;20.10;64.02
62124;BME280;48110;47.532;19.078;2023-08-07T13:00:55;99965.66;;;19.69;66.01
62124;BME280;48110;47.532;19.078;2023-08-07T13:03:58;99967.97;;;19.42;72.00
62124;BME280;48110;47.532;19.078;2023-08-07T13:07:02;99973.53;;;21.34;64.17
62124;BME280;48110;47.532;19.078;2023-08-07T13:10:06;99982.44;;;23.33;52.50
62124;BME280;48110;47.532;19.078;2023-08-07T13:13:09;99990.09;;;24.86;49.30
62124;BME280;48110;47.532;19.078;2023-08-07T13:16:12;99986.59;;;27.04;44.80
62124;BME280;48110;47.532;19.078;2023-08-07T13:19:15;99990.41;;;27.60;43.43
62124;BME280;48110;47.532;19.078;2023-08-07T13:22:17;99990.94;;;25.17;45.48
62124;BME280;48110;47.532;19.078;2023-08-07T13:25:20;99992.41;;;22.64;51.62
62124;BME280;48110;47.532;19.078;2023-08-07T13:28:23;99994.09;;;23.34;52.07
62124;BME280;48110;47.532;19.078;2023-08-07T13:31:26;99989.03;;;21.43;56.39
62124;BME280;48110;47.532;19.078;2023-08-07T13:34:29;99999.81;;;20.93;60.50
62124;BME280;48110;47.532;19.078;2023-08-07T13:37:32;100004.03;;;20.56;61.62
62124;BME280;48110;47.532;19.078;2023-08-07T13:40:35;100001.31;;;19.06;69.75
62124;BME280;48110;47.532;19.078;2023-08-07T13:43:38;100015.03;;;19.51;71.21
62124;BME280;48110;47.532;19.078;2023-08-07T13:46:41;100002.63;;;19.62;70.73
62124;BME280;48110;47.532;19.078;2023-08-07T13:49:44;100011.09;;;18.89;72.30
62124;BME280;48110;47.532;19.078;2023-08-07T13:52:46;100018.06;;;18.66;75.52
62124;BME280;48110;47.532;19.078;2023-08-07T13:56:05;100025.25;;;17.45;87.09
62124;BME280;48110;47.532;19.078;2023-08-07T13:59:09;100011.13;;;17.56;91.50
62124;BME280;48110;47.532;19.078;2023-08-07T14:02:12;100024.75;;;18.76;81.36
62124;BME280;48110;47.532;19.078;2023-08-07T14:05:15;100021.88;;;17.93;87.27
62124;BME280;48110;47.532;19.078;2023-08-07T14:08:17;100022.28;;;18.26;86.75
62124;BME280;48110;47.532;19.078;2023-08-07T14:11:20;100033.37;;;18.00;85.55
62124;BME280;48110;47.532;19.078;2023-08-07T14:14:23;100029.72;;;17.51;91.12
62124;BME280;48110;47.532;19.078;2023-08-07T14:17:26;100035.34;;;17.68;93.81
62124;BME280;48110;47.532;19.078;2023-08-07T14:20:29;100036.25;;;17.37;94.60
62124;BME280;48110;47.532;19.078;2023-08-07T14:23:32;100054.37;;;17.17;98.91
62124;BME280;48110;47.532;19.078;2023-08-07T14:26:35;100045.22;;;16.75;100.00
62124;BME280;48110;47.532;19.078;2023-08-07T14:29:38;100038.56;;;16.39;100.00
62124;BME280;48110;47.532;19.078;2023-08-07T14:32:41;100050.94;;;16.40;100.00
62124;BME280;48110;47.532;19.078;2023-08-07T14:35:45;100047.56;;;16.07;100.00
62124;BME280;48110;47.532;19.078;2023-08-07T14:38:48;100036.56;;;16.22;100.00
62124;BME280;48110;47.532;19.078;2023-08-07T14:41:51;100053.53;;;16.02;100.00
62124;BME280;48110;47.532;19.078;2023-08-07T14:44:54;100055.78;;;16.05;100.00
62124;BME280;48110;47.532;19.078;2023-08-07T14:47:57;100055.81;;;15.99;100.00
62124;BME280;48110;47.532;19.078;2023-08-07T14:51:00;100045.97;;;15.80;100.00
62124;BME280;48110;47.532;19.078;2023-08-07T14:54:03;100045.59;;;15.76;100.00
62124;BME280;48110;47.532;19.078;2023-08-07T14:57:05;100053.72;;;16.07;100.00
62124;BME280;48110;47.532;19.078;2023-08-07T15:00:09;100058.47;;;16.05;100.00
62124;BME280;48110;47.532;19.078;2023-08-07T15:03:12;100064.41;;;16.14;100.00
62124;BME280;48110;47.532;19.078;2023-08-07T15:06:15;100060.56;;;15.90;100.00
62124;BME280;48110;47.532;19.078;2023-08-07T15:09:18;100054.84;;;15.74;100.00
62124;BME280;48110;47.532;19.078;2023-08-07T15:12:22;100070.03;;;15.93;100.00
62124;BME280;48110;47.532;19.078;2023-08-07T15:15:24;100059.16;;;15.81;100.00
62124;BME280;48110;47.532;19.078;2023-08-07T15:18:27;100065.78;;;15.52;100.00
62124;BME280;48110;47.532;19.078;2023-08-07T15:21:30;100055.09;;;15.52;100.00
62124;BME280;48110;47.532;19.078;2023-08-07T15:24:33;100065.34;;;15.49;100.00
62124;BME280;48110;47.532;19.078;2023-08-07T15:27:36;100064.13;;;15.51;100.00
62124;BME280;48110;47.532;19.078;2023-08-07T15:30:39;100064.75;;;15.60;100.00
62124;BME280;48110;47.532;19.078;2023-08-07T15:33:42;100071.13;;;15.59;100.00
62124;BME280;48110;47.532;19.078;2023-08-07T15:36:49;100055.50;;;15.56;100.00
62124;BME280;48110;47.532;19.078;2023-08-07T15:39:52;100059.81;;;15.57;100.00
62124;BME280;48110;47.532;19.078;2023-08-07T15:42:55;100065.38;;;15.62;100.00
62124;BME280;48110;47.532;19.078;2023-08-07T15:46:00;100065.34;;;15.69;100.00
62124;BME280;48110;47.532;19.078;2023-08-07T15:49:03;100058.59;;;15.53;100.00
62124;BME280;48110;47.532;19.078;2023-08-07T15:52:06;100061.22;;;15.40;100.00
62124;BME280;48110;47.532;19.078;2023-08-07T15:55:09;100068.81;;;15.49;100.00
62124;BME280;48110;47.532;19.078;2023-08-07T15:58:12;100055.91;;;15.53;100.00